Airport ICAO


07:29 UTC

8°C

Clear skies


An affordable passengers' Moving Map for your aircraft. Made for the iPad and the iPhone
More information here

LFPO Orly


Paris FRANCE   VFR CAVOK


METAR LFPO 200700Z 20002KT CAVOK 08/08 Q1023 NOSIG 0h29min

TAF LFPO 200500Z 2006/2112 21004KT 9999 SCT040 PROB30 TEMPO 2006/2008 0400 BCFG PROB30 TEMPO 2100/2106 4000 MIFG 2h29min





NOTAMS

OPEN